Página principal
METAR-TAF:

METAR-TAF

Aeroportos :

Llano Municipal Airport

Llano, Texas, Estados Unidos

latitude: 30-47-01N, longitude: 098-39-43W, altura: 336 m

Observação actual do tempo

O boletim foi feito há 25 minutos, às 01:15 UTC
Vento 21 kt de oes-noroeste com rajadas de 27 kt
Temperatura 6°C
Humidade 75%
Pressão 1014 hPa
Visibilidade: 16.1 km
Nuvens fragmentadasa uma altura de 2200 ft

METAR: KAQO 140115Z AUTO 29021G27KT 10SM BKN022 06/02 A2994 RMK AO2

Hora: 19:40 (01:40 UTC)


TAF: em falta

Observações e previsões do tempo de mais de 4000 aeroportos (mensagens METAR e TAF).

As estações disponíveis são os pontos amarelos e vermelhos sobre o mapa.

Mova o rato sobre o mapa para ver o nome da estação.

Depois clique no ponto para visualizar as observações e previsões meteorológicas.

Para alterar o mapa : clique nos botões verdes com uma cruz preta para aumentar o zoom; no botão verde com uma pitada de zoom; ou nas setas verdes para mapas adjacentes.


METAR-TAF: